createdAt,value
2018-09-04T00:00:21.997Z,16.91
2018-09-04T00:01:22.179Z,16.85
2018-09-04T00:02:22.366Z,16.70
2018-09-04T00:03:22.567Z,16.70
2018-09-04T00:04:22.759Z,16.70
2018-09-04T00:05:22.978Z,16.71
2018-09-04T00:06:23.172Z,16.67
2018-09-04T00:07:23.362Z,16.76
2018-09-04T00:08:23.555Z,16.64
2018-09-04T00:09:23.743Z,16.78
2018-09-04T00:10:23.936Z,16.67
2018-09-04T00:11:24.134Z,16.70
2018-09-04T00:12:24.327Z,16.67
2018-09-04T00:13:24.515Z,16.73
2018-09-04T00:14:24.712Z,16.75
2018-09-04T00:15:24.899Z,16.76
2018-09-04T00:16:25.097Z,16.81
2018-09-04T00:17:25.281Z,16.78
2018-09-04T00:18:25.469Z,16.83
2018-09-04T00:19:25.659Z,16.81
2018-09-04T00:20:25.853Z,16.78
2018-09-04T00:21:26.044Z,16.82
2018-09-04T00:22:26.233Z,16.76
2018-09-04T00:23:26.425Z,16.82
2018-09-04T00:24:26.614Z,16.93
2018-09-04T00:25:26.811Z,16.82
2018-09-04T00:26:26.987Z,16.75
2018-09-04T00:27:27.176Z,16.83
2018-09-04T00:28:27.365Z,16.81
2018-09-04T00:29:27.559Z,16.89
2018-09-04T00:30:27.753Z,16.89
2018-09-04T00:31:27.939Z,16.93
2018-09-04T00:32:28.140Z,16.96
2018-09-04T00:33:28.340Z,16.91
2018-09-04T00:34:28.599Z,16.81
2018-09-04T00:35:28.725Z,16.89
2018-09-04T00:36:28.921Z,16.93
2018-09-04T00:37:29.113Z,16.91
2018-09-04T00:38:29.304Z,16.97
2018-09-04T00:39:29.496Z,16.94
2018-09-04T00:40:29.686Z,16.91
2018-09-04T00:41:29.876Z,16.89
2018-09-04T00:42:30.066Z,16.85
2018-09-04T00:43:30.257Z,16.88
2018-09-04T00:44:30.447Z,16.88
2018-09-04T00:45:30.634Z,16.86
2018-09-04T00:46:30.823Z,16.94
2018-09-04T00:47:31.015Z,16.83
2018-09-04T00:48:31.213Z,16.85
2018-09-04T00:49:31.395Z,16.73
2018-09-04T00:50:31.596Z,16.68
2018-09-04T00:51:31.791Z,16.75
2018-09-04T00:52:31.980Z,16.70
2018-09-04T00:53:32.175Z,16.68
2018-09-04T00:54:32.362Z,16.76
2018-09-04T00:55:32.554Z,16.67
2018-09-04T00:56:32.750Z,16.73
2018-09-04T00:57:32.944Z,16.81
2018-09-04T00:58:33.132Z,16.79
2018-09-04T00:59:33.326Z,16.85
2018-09-04T01:00:33.519Z,16.79
2018-09-04T01:01:33.714Z,16.78
2018-09-04T01:02:33.903Z,16.86
2018-09-04T01:03:34.099Z,16.75
2018-09-04T01:04:34.290Z,16.70
2018-09-04T01:05:34.484Z,16.73
2018-09-04T01:06:34.672Z,16.68
2018-09-04T01:07:34.862Z,16.73
2018-09-04T01:08:35.058Z,16.71
2018-09-04T01:09:35.249Z,16.71
2018-09-04T01:10:35.441Z,16.71
2018-09-04T01:11:35.633Z,16.68
2018-09-04T01:12:35.823Z,16.78
2018-09-04T01:13:36.012Z,16.79
2018-09-04T01:14:36.198Z,16.81
2018-09-04T01:15:36.392Z,16.81
2018-09-04T01:16:36.583Z,16.79
2018-09-04T01:17:36.775Z,16.93
2018-09-04T01:18:36.971Z,16.79
2018-09-04T01:19:37.153Z,16.93
2018-09-04T01:20:37.354Z,16.88
2018-09-04T01:21:37.538Z,16.94
2018-09-04T01:22:37.732Z,17.00
2018-09-04T01:23:37.922Z,17.01
2018-09-04T01:24:38.113Z,16.94
2018-09-04T01:25:38.298Z,16.93
2018-09-04T01:26:38.502Z,16.76
2018-09-04T01:27:38.691Z,16.94
2018-09-04T01:28:38.878Z,16.73
2018-09-04T01:29:39.072Z,16.75
2018-09-04T01:30:39.260Z,16.75
2018-09-04T01:31:39.449Z,16.82
2018-09-04T01:32:39.642Z,16.85
2018-09-04T01:33:39.843Z,16.75
2018-09-04T01:34:40.032Z,16.76
2018-09-04T01:35:40.222Z,16.75
2018-09-04T01:36:40.426Z,16.75
2018-09-04T01:37:40.599Z,16.81
2018-09-04T01:38:40.796Z,16.76
2018-09-04T01:39:40.981Z,16.85
2018-09-04T01:40:41.171Z,16.88
2018-09-04T01:41:41.366Z,16.86
2018-09-04T01:42:41.572Z,16.98
2018-09-04T01:43:41.744Z,16.89
2018-09-04T01:44:41.936Z,16.91
2018-09-04T01:45:42.127Z,16.96
2018-09-04T01:46:42.318Z,16.96
2018-09-04T01:47:42.503Z,16.89
2018-09-04T01:48:42.698Z,16.96
2018-09-04T01:49:42.890Z,16.93
2018-09-04T01:50:43.077Z,16.96
2018-09-04T01:51:43.270Z,16.96
2018-09-04T01:52:43.463Z,16.94
2018-09-04T01:53:43.650Z,16.93
2018-09-04T01:54:43.846Z,17.00
2018-09-04T01:55:44.033Z,17.06
2018-09-04T01:56:44.228Z,16.94
2018-09-04T01:57:44.424Z,16.88
2018-09-04T01:58:44.610Z,16.96
2018-09-04T01:59:44.798Z,16.88
2018-09-04T02:00:44.984Z,17.00
2018-09-04T02:01:45.178Z,17.00
2018-09-04T02:02:45.364Z,16.97
2018-09-04T02:03:45.559Z,16.89
2018-09-04T02:04:45.753Z,16.88
2018-09-04T02:05:45.941Z,16.88
2018-09-04T02:06:46.133Z,16.96
2018-09-04T02:07:46.322Z,16.86
2018-09-04T02:08:46.514Z,16.83
2018-09-04T02:09:46.708Z,16.73
2018-09-04T02:10:46.893Z,16.81
2018-09-04T02:11:47.085Z,16.88
2018-09-04T02:12:47.276Z,16.88
2018-09-04T02:13:47.467Z,16.83
2018-09-04T02:14:47.673Z,16.89
2018-09-04T02:15:47.861Z,16.89
2018-09-04T02:16:48.051Z,16.97
2018-09-04T02:17:48.244Z,17.00
2018-09-04T02:18:48.434Z,17.01
2018-09-04T02:19:48.620Z,17.00
2018-09-04T02:20:48.818Z,16.97
2018-09-04T02:21:49.008Z,16.98
2018-09-04T02:22:49.200Z,17.01
2018-09-04T02:23:49.394Z,17.06
2018-09-04T02:24:49.578Z,17.03
2018-09-04T02:25:49.766Z,16.97
2018-09-04T02:26:49.971Z,16.96
2018-09-04T02:27:50.153Z,17.07
2018-09-04T02:28:50.330Z,16.97
2018-09-04T02:29:50.516Z,16.88
2018-09-04T02:30:50.704Z,16.91
2018-09-04T02:31:50.899Z,16.94
2018-09-04T02:32:51.088Z,16.85
2018-09-04T02:33:51.293Z,16.94
2018-09-04T02:34:51.473Z,16.88
2018-09-04T02:35:51.665Z,16.89
2018-09-04T02:36:51.853Z,17.00
2018-09-04T02:37:52.049Z,17.06
2018-09-04T02:38:52.235Z,17.06
2018-09-04T02:39:52.429Z,17.08
2018-09-04T02:40:52.621Z,16.97
2018-09-04T02:41:52.813Z,16.91
2018-09-04T02:42:53.009Z,16.85
2018-09-04T02:43:53.196Z,16.82
2018-09-04T02:44:53.386Z,16.81
2018-09-04T02:45:53.632Z,16.85
2018-09-04T02:46:53.784Z,16.76
2018-09-04T02:47:53.976Z,16.83
2018-09-04T02:48:54.165Z,16.89
2018-09-04T02:49:54.374Z,16.78
2018-09-04T02:50:54.562Z,16.78
2018-09-04T02:51:54.758Z,16.78
2018-09-04T02:52:54.944Z,16.79
2018-09-04T02:53:55.138Z,16.86
2018-09-04T02:54:55.329Z,16.78
2018-09-04T02:55:55.525Z,16.81
2018-09-04T02:56:55.718Z,16.91
2018-09-04T02:57:55.906Z,16.83
2018-09-04T02:58:56.099Z,16.97
2018-09-04T02:59:56.286Z,16.93
2018-09-04T03:00:56.476Z,16.93
2018-09-04T03:01:56.664Z,16.85
2018-09-04T03:02:56.854Z,16.89
2018-09-04T03:03:57.047Z,16.81
2018-09-04T03:04:57.243Z,16.89
2018-09-04T03:05:57.428Z,16.88
2018-09-04T03:06:57.653Z,16.86
2018-09-04T03:07:57.806Z,16.93
2018-09-04T03:08:58.006Z,16.86
2018-09-04T03:09:58.187Z,16.93
2018-09-04T03:10:58.378Z,16.98
2018-09-04T03:11:58.570Z,17.01
2018-09-04T03:12:58.757Z,17.03
2018-09-04T03:13:59.086Z,16.98
2018-09-04T03:14:59.148Z,17.00
2018-09-04T03:15:59.342Z,16.96
2018-09-04T03:16:59.528Z,17.01
2018-09-04T03:17:59.722Z,16.98
2018-09-04T03:18:59.916Z,17.08
2018-09-04T03:20:00.110Z,17.06
2018-09-04T03:21:00.305Z,17.14
2018-09-04T03:22:00.496Z,17.15
2018-09-04T03:23:00.695Z,17.07
2018-09-04T03:24:00.885Z,16.91
2018-09-04T03:25:01.071Z,16.76
2018-09-04T03:26:01.257Z,16.78
2018-09-04T03:27:01.448Z,16.81
2018-09-04T03:28:01.643Z,16.83
2018-09-04T03:29:01.842Z,16.85
2018-09-04T03:30:02.030Z,16.86
2018-09-04T03:31:02.218Z,16.83
2018-09-04T03:32:02.417Z,16.85
2018-09-04T03:33:02.606Z,16.88
2018-09-04T03:34:02.800Z,16.97
2018-09-04T03:35:02.989Z,17.08
2018-09-04T03:36:03.180Z,17.03
2018-09-04T03:37:03.388Z,17.01
2018-09-04T03:38:03.586Z,17.00
2018-09-04T03:39:03.773Z,17.11
2018-09-04T03:40:03.963Z,17.11
2018-09-04T03:41:04.153Z,17.07
2018-09-04T03:42:04.344Z,17.07
2018-09-04T03:43:04.533Z,17.12
2018-09-04T03:44:04.721Z,17.12
2018-09-04T03:45:04.918Z,17.06
2018-09-04T03:46:05.107Z,17.14
2018-09-04T03:47:05.295Z,17.11
2018-09-04T03:48:05.487Z,17.06
2018-09-04T03:49:05.678Z,17.12
2018-09-04T03:50:05.870Z,17.12
2018-09-04T03:51:06.059Z,17.01
2018-09-04T03:52:06.252Z,16.93
2018-09-04T03:53:06.445Z,16.91
2018-09-04T03:54:06.640Z,16.94
2018-09-04T03:55:06.830Z,16.96
2018-09-04T03:56:07.040Z,16.76
2018-09-04T03:57:07.230Z,16.73
2018-09-04T03:58:07.420Z,16.68
2018-09-04T03:59:07.610Z,16.70
2018-09-04T04:00:07.800Z,16.70
2018-09-04T04:01:08.000Z,16.66
2018-09-04T04:02:08.186Z,16.68
2018-09-04T04:03:08.377Z,16.70
2018-09-04T04:04:08.564Z,16.82
2018-09-04T04:05:08.754Z,16.79
2018-09-04T04:06:08.945Z,16.82
2018-09-04T04:07:09.136Z,16.75
2018-09-04T04:08:09.325Z,16.68
2018-09-04T04:09:09.518Z,16.76
2018-09-04T04:10:09.712Z,16.73
2018-09-04T04:11:09.904Z,16.76
2018-09-04T04:12:10.117Z,16.75
2018-09-04T04:13:10.285Z,16.86
2018-09-04T04:14:10.479Z,16.79
2018-09-04T04:15:10.665Z,16.89
2018-09-04T04:16:10.869Z,16.83
2018-09-04T04:17:11.061Z,16.86
2018-09-04T04:18:11.249Z,16.78
2018-09-04T04:19:11.438Z,16.75
2018-09-04T04:20:11.627Z,16.70
2018-09-04T04:21:11.816Z,16.78
2018-09-04T04:22:12.005Z,16.83
2018-09-04T04:23:12.202Z,16.85
2018-09-04T04:24:12.386Z,16.86
2018-09-04T04:25:12.574Z,16.86
2018-09-04T04:26:12.766Z,16.94
2018-09-04T04:27:12.956Z,16.88
2018-09-04T04:28:13.135Z,16.91
2018-09-04T04:29:13.329Z,16.88
2018-09-04T04:30:13.519Z,16.85
2018-09-04T04:31:13.710Z,16.88
2018-09-04T04:32:13.912Z,16.81
2018-09-04T04:33:14.138Z,16.78
2018-09-04T04:34:14.284Z,16.91
2018-09-04T04:35:14.478Z,16.86
2018-09-04T04:36:14.670Z,16.89
2018-09-04T04:37:14.857Z,16.94
2018-09-04T04:38:15.046Z,17.03
2018-09-04T04:39:15.242Z,17.01
2018-09-04T04:40:15.430Z,16.94
2018-09-04T04:41:15.618Z,16.79
2018-09-04T04:42:15.809Z,16.75
2018-09-04T04:43:16.002Z,16.78
2018-09-04T04:44:16.193Z,16.75
2018-09-04T04:45:16.386Z,16.86
2018-09-04T04:46:16.578Z,16.83
2018-09-04T04:47:16.766Z,16.78
2018-09-04T04:48:16.968Z,16.71
2018-09-04T04:49:17.168Z,16.73
2018-09-04T04:50:17.356Z,16.71
2018-09-04T04:51:17.547Z,16.70
2018-09-04T04:52:17.743Z,16.75
2018-09-04T04:53:17.928Z,16.76
2018-09-04T04:54:18.120Z,16.71
2018-09-04T04:55:18.315Z,16.73
2018-09-04T04:56:18.503Z,16.76
2018-09-04T04:57:18.692Z,16.66
2018-09-04T04:58:18.886Z,16.73
2018-09-04T04:59:19.075Z,16.71
2018-09-04T05:00:19.269Z,16.63
2018-09-04T05:01:19.457Z,16.68
2018-09-04T05:02:19.644Z,16.73
2018-09-04T05:03:19.831Z,16.75
2018-09-04T05:04:20.024Z,16.67
2018-09-04T05:05:20.215Z,16.78
2018-09-04T05:06:20.408Z,16.71
2018-09-04T05:07:20.594Z,16.73
2018-09-04T05:08:20.785Z,16.76
2018-09-04T05:09:20.976Z,16.78
2018-09-04T05:10:21.179Z,16.70
2018-09-04T05:11:21.407Z,16.71
2018-09-04T05:12:21.550Z,16.75
2018-09-04T05:13:21.739Z,16.79
2018-09-04T05:14:21.917Z,16.76
2018-09-04T05:15:22.109Z,16.83
2018-09-04T05:16:22.299Z,16.91
2018-09-04T05:17:22.490Z,16.89
2018-09-04T05:18:22.682Z,16.85
2018-09-04T05:19:22.874Z,16.88
2018-09-04T05:20:23.066Z,16.93
2018-09-04T05:21:23.254Z,16.89
2018-09-04T05:22:23.446Z,16.88
2018-09-04T05:23:23.639Z,16.88
2018-09-04T05:24:23.831Z,16.88
2018-09-04T05:25:24.019Z,16.83
2018-09-04T05:26:24.213Z,16.89
2018-09-04T05:27:24.408Z,16.88
2018-09-04T05:28:24.596Z,16.93
2018-09-04T05:29:24.877Z,16.96
2018-09-04T05:30:24.978Z,16.94
2018-09-04T05:31:25.168Z,16.88
2018-09-04T05:32:25.360Z,16.88
2018-09-04T05:33:25.596Z,16.97
2018-09-04T05:34:25.735Z,17.01
2018-09-04T05:35:25.928Z,16.98
2018-09-04T05:36:26.116Z,17.01
2018-09-04T05:37:26.305Z,17.03
2018-09-04T05:38:26.509Z,16.96
2018-09-04T05:39:26.691Z,16.97
2018-09-04T05:40:26.877Z,16.94
2018-09-04T05:41:27.071Z,16.88
2018-09-04T05:42:27.265Z,16.96
2018-09-04T05:43:27.454Z,16.93
2018-09-04T05:44:27.641Z,16.91
2018-09-04T05:45:27.833Z,16.88
2018-09-04T05:46:28.023Z,16.91
2018-09-04T05:47:28.227Z,16.96
2018-09-04T05:48:28.415Z,16.96
2018-09-04T05:49:28.605Z,16.97
2018-09-04T05:50:28.800Z,16.98
2018-09-04T05:51:28.994Z,17.00
2018-09-04T05:52:29.179Z,17.00
2018-09-04T05:53:29.371Z,16.91
2018-09-04T05:54:29.566Z,17.00
2018-09-04T05:55:29.754Z,17.00
2018-09-04T05:56:29.941Z,16.89
2018-09-04T05:57:30.149Z,16.93
2018-09-04T05:58:30.335Z,16.97
2018-09-04T05:59:30.538Z,16.86
2018-09-04T06:00:30.709Z,16.88
2018-09-04T06:01:30.915Z,16.88
2018-09-04T06:02:31.104Z,16.93
2018-09-04T06:03:31.303Z,17.04
2018-09-04T06:04:31.493Z,17.08
2018-09-04T06:05:31.683Z,17.15
2018-09-04T06:06:31.874Z,17.12
2018-09-04T06:07:32.065Z,17.28
2018-09-04T06:08:32.258Z,17.23
2018-09-04T06:09:32.444Z,17.43
2018-09-04T06:10:32.642Z,17.51
2018-09-04T06:11:32.822Z,17.46
2018-09-04T06:12:33.027Z,17.54
2018-09-04T06:13:33.268Z,17.63
2018-09-04T06:14:33.402Z,17.58
2018-09-04T06:15:33.622Z,17.63
2018-09-04T06:16:33.786Z,17.62
2018-09-04T06:17:33.981Z,17.63
2018-09-04T06:18:34.177Z,17.52
2018-09-04T06:19:34.363Z,17.59
2018-09-04T06:20:34.553Z,17.66
2018-09-04T06:21:34.740Z,17.72
2018-09-04T06:22:34.934Z,17.77
2018-09-04T06:23:35.126Z,17.93
2018-09-04T06:24:35.309Z,18.07
2018-09-04T06:25:35.512Z,18.29
2018-09-04T06:26:35.699Z,18.32
2018-09-04T06:27:35.896Z,18.55
2018-09-04T06:28:36.089Z,18.66
2018-09-04T06:29:36.355Z,18.57
2018-09-04T06:30:36.480Z,18.48
2018-09-04T06:31:36.670Z,18.41
2018-09-04T06:32:36.865Z,18.55
2018-09-04T06:33:37.058Z,18.47
2018-09-04T06:34:37.258Z,18.48
2018-09-04T06:35:37.446Z,18.55
2018-09-04T06:36:37.648Z,18.54
2018-09-04T06:37:37.845Z,18.52
2018-09-04T06:38:38.029Z,18.45
2018-09-04T06:39:38.225Z,18.47
2018-09-04T06:40:38.421Z,18.48
2018-09-04T06:41:38.606Z,18.45
2018-09-04T06:42:38.805Z,18.41
2018-09-04T06:43:38.989Z,18.42
2018-09-04T06:44:39.185Z,18.44
2018-09-04T06:45:39.381Z,18.51
2018-09-04T06:46:39.726Z,18.57
2018-09-04T06:47:39.712Z,18.76
2018-09-04T06:48:39.911Z,18.58
2018-09-04T06:49:40.089Z,18.55
2018-09-04T06:50:40.284Z,18.54
2018-09-04T06:51:40.474Z,18.48
2018-09-04T06:52:40.675Z,18.44
2018-09-04T06:53:40.869Z,18.44
2018-09-04T06:54:41.124Z,18.48
2018-09-04T06:55:41.255Z,18.50
2018-09-04T06:56:41.441Z,18.54
2018-09-04T06:57:41.646Z,18.39
2018-09-04T06:58:41.829Z,18.51
2018-09-04T06:59:42.026Z,18.58
2018-09-04T07:00:42.214Z,18.80
2018-09-04T07:01:42.404Z,18.92
2018-09-04T07:02:42.595Z,19.08
2018-09-04T07:03:42.789Z,19.07
2018-09-04T07:04:42.984Z,18.91
2018-09-04T07:05:43.175Z,18.84
2018-09-04T07:06:43.377Z,19.04
2018-09-04T07:07:43.575Z,18.80
2018-09-04T07:08:43.770Z,18.60
2018-09-04T07:09:43.959Z,18.50
2018-09-04T07:10:44.155Z,18.50
2018-09-04T07:11:44.352Z,18.44
2018-09-04T07:12:44.545Z,18.47
2018-09-04T07:13:44.740Z,18.60
2018-09-04T07:14:44.930Z,18.62
2018-09-04T07:15:45.125Z,18.63
2018-09-04T07:16:45.318Z,18.76
2018-09-04T07:17:45.508Z,18.90
2018-09-04T07:18:45.701Z,19.02
2018-09-04T07:19:45.892Z,19.06
2018-09-04T07:20:46.085Z,19.14
2018-09-04T07:21:46.278Z,19.18
2018-09-04T07:22:46.470Z,19.25
2018-09-04T07:23:46.661Z,18.87
2018-09-04T07:24:46.855Z,18.60
2018-09-04T07:25:47.053Z,18.47
2018-09-04T07:26:47.238Z,18.50
2018-09-04T07:27:47.435Z,18.48
2018-09-04T07:28:47.628Z,18.52
2018-09-04T07:29:47.820Z,18.62
2018-09-04T07:30:48.018Z,18.67
2018-09-04T07:31:48.210Z,18.70
2018-09-04T07:32:48.408Z,18.91
2018-09-04T07:33:48.600Z,19.04
2018-09-04T07:34:48.791Z,19.00
2018-09-04T07:35:48.988Z,19.10
2018-09-04T07:36:49.174Z,19.06
2018-09-04T07:37:49.381Z,18.88
2018-09-04T07:38:49.571Z,18.92
2018-09-04T07:39:49.763Z,19.08
2018-09-04T07:40:49.959Z,19.07
2018-09-04T07:41:50.148Z,18.70
2018-09-04T07:42:50.361Z,18.67
2018-09-04T07:43:50.563Z,18.63
2018-09-04T07:44:50.756Z,18.55
2018-09-04T07:45:50.953Z,18.51
2018-09-04T07:46:51.145Z,18.67
2018-09-04T07:47:51.341Z,18.78
2018-09-04T07:48:51.536Z,18.67
2018-09-04T07:49:51.730Z,18.57
2018-09-04T07:50:51.920Z,18.57
2018-09-04T07:51:52.116Z,18.63
2018-09-04T07:52:52.308Z,18.80
2018-09-04T07:53:52.561Z,18.66
2018-09-04T07:54:52.697Z,18.48
2018-09-04T07:55:52.894Z,18.58
2018-09-04T07:56:53.091Z,18.75
2018-09-04T07:57:53.280Z,18.63
2018-09-04T07:58:53.468Z,18.87
2018-09-04T07:59:53.666Z,18.98
2018-09-04T08:00:53.910Z,18.92
2018-09-04T08:01:54.047Z,18.94
2018-09-04T08:02:54.240Z,19.06
2018-09-04T08:03:54.434Z,19.19
2018-09-04T08:04:54.629Z,19.32
2018-09-04T08:05:54.838Z,19.41
2018-09-04T08:06:55.017Z,19.40
2018-09-04T08:07:55.215Z,19.56
2018-09-04T08:08:55.419Z,19.62
2018-09-04T08:09:55.613Z,19.59
2018-09-04T08:10:55.801Z,19.78
2018-09-04T08:11:55.997Z,19.86
2018-09-04T08:12:56.179Z,19.98
2018-09-04T08:13:56.377Z,20.02
2018-09-04T08:14:56.573Z,19.94
2018-09-04T08:15:56.762Z,19.91
2018-09-04T08:16:56.960Z,19.98
2018-09-04T08:17:57.154Z,20.26
2018-09-04T08:18:57.345Z,20.35
2018-09-04T08:19:57.536Z,20.43
2018-09-04T08:20:57.777Z,20.61
2018-09-04T08:21:57.924Z,20.76
2018-09-04T08:22:58.123Z,21.14
2018-09-04T08:23:58.316Z,21.31
2018-09-04T08:24:58.503Z,21.44
2018-09-04T08:25:58.703Z,21.32
2018-09-04T08:26:58.890Z,21.44
2018-09-04T08:27:59.097Z,21.28
2018-09-04T08:28:59.274Z,21.31
2018-09-04T08:29:59.480Z,21.52
2018-09-04T08:30:59.673Z,21.91
2018-09-04T08:31:59.866Z,22.20
2018-09-04T08:33:00.130Z,22.30
2018-09-04T08:34:00.257Z,22.30
2018-09-04T08:35:00.447Z,22.28
2018-09-04T08:36:00.647Z,22.03
2018-09-04T08:37:00.841Z,22.60
2018-09-04T08:38:01.035Z,22.86
2018-09-04T08:39:01.226Z,23.48
2018-09-04T08:40:01.511Z,24.25
2018-09-04T08:41:01.614Z,23.98
2018-09-04T08:42:01.816Z,23.51
2018-09-04T08:43:02.010Z,23.46
2018-09-04T08:44:02.204Z,23.65
2018-09-04T08:45:02.411Z,23.88
2018-09-04T08:46:02.607Z,24.16
2018-09-04T08:47:02.814Z,24.46
2018-09-04T08:48:02.999Z,24.76
2018-09-04T08:49:03.202Z,24.90
2018-09-04T08:50:03.397Z,25.32
2018-09-04T08:51:03.593Z,25.28
2018-09-04T08:52:03.798Z,25.70
2018-09-04T08:53:03.987Z,25.75
2018-09-04T08:54:04.185Z,25.98
2018-09-04T08:55:04.387Z,26.66
2018-09-04T08:56:04.574Z,27.13
2018-09-04T08:57:04.765Z,28.06
2018-09-04T08:58:04.966Z,28.74
2018-09-04T08:59:05.164Z,28.70
2018-09-04T09:00:05.369Z,28.76
2018-09-04T09:01:05.565Z,29.16
2018-09-04T09:02:05.766Z,29.52
2018-09-04T09:03:05.967Z,29.51
2018-09-04T09:04:06.166Z,29.58
2018-09-04T09:05:06.376Z,29.30
2018-09-04T09:06:06.586Z,28.86
2018-09-04T09:07:06.802Z,28.88
2018-09-04T09:08:07.002Z,29.89
2018-09-04T09:09:07.221Z,29.68
2018-09-04T09:10:07.441Z,29.85
2018-09-04T09:11:07.627Z,29.94
2018-09-04T09:12:07.831Z,30.26
2018-09-04T09:13:08.035Z,30.16
2018-09-04T09:14:08.240Z,28.51
2018-09-04T09:15:08.435Z,28.22
2018-09-04T09:16:08.637Z,27.99
2018-09-04T09:17:08.840Z,28.64
2018-09-04T09:18:09.042Z,29.42
2018-09-04T09:19:09.255Z,30.04
2018-09-04T09:20:09.444Z,30.31
2018-09-04T09:21:09.648Z,30.82
2018-09-04T09:22:09.854Z,30.84
2018-09-04T09:23:10.059Z,30.55
2018-09-04T09:24:10.270Z,30.57
2018-09-04T09:25:10.471Z,30.57
2018-09-04T09:26:10.679Z,30.13
2018-09-04T09:27:10.884Z,28.31
2018-09-04T09:28:11.083Z,28.62
2018-09-04T09:29:11.297Z,27.22
2018-09-04T09:30:11.497Z,26.97
2018-09-04T09:31:11.701Z,27.85
2018-09-04T09:32:11.909Z,28.56
2018-09-04T09:33:12.114Z,29.33
2018-09-04T09:34:12.314Z,29.52
2018-09-04T09:35:12.584Z,28.96
2018-09-04T09:36:12.734Z,27.28
2018-09-04T09:37:12.943Z,27.97
2018-09-04T09:38:13.152Z,28.52
2018-09-04T09:39:13.363Z,29.28
2018-09-04T09:40:13.564Z,29.42
2018-09-04T09:41:13.774Z,29.85
2018-09-04T09:42:13.983Z,30.51
2018-09-04T09:43:14.198Z,31.39
2018-09-04T09:44:14.396Z,31.51
2018-09-04T09:45:14.604Z,30.92
2018-09-04T09:46:14.808Z,29.94
2018-09-04T09:47:15.011Z,28.25
2018-09-04T09:48:15.217Z,27.88
2018-09-04T09:49:15.431Z,28.31
2018-09-04T09:50:15.632Z,29.52
2018-09-04T09:51:15.842Z,29.52
2018-09-04T09:52:16.047Z,28.04
2018-09-04T09:53:16.462Z,28.31
2018-09-04T09:54:16.454Z,27.17
2018-09-04T09:55:16.657Z,27.67
2018-09-04T09:56:16.934Z,27.77
2018-09-04T09:57:17.074Z,29.09
2018-09-04T09:58:17.275Z,29.14
2018-09-04T09:59:17.512Z,29.65
2018-09-04T10:00:17.732Z,30.27
2018-09-04T10:01:17.902Z,30.72
2018-09-04T10:02:18.106Z,30.31
2018-09-04T10:03:18.316Z,29.78
2018-09-04T10:04:18.515Z,30.60
2018-09-04T10:05:18.721Z,31.01
2018-09-04T10:06:18.926Z,30.79
2018-09-04T10:07:19.132Z,30.91
2018-09-04T10:08:19.353Z,29.15
2018-09-04T10:09:19.539Z,28.90
2018-09-04T10:10:19.777Z,29.49
2018-09-04T10:11:19.952Z,30.83
2018-09-04T10:12:20.154Z,30.77
2018-09-04T10:13:20.373Z,30.99
2018-09-04T10:14:20.576Z,30.84
2018-09-04T10:15:20.784Z,31.44
2018-09-04T10:16:20.993Z,31.53
2018-09-04T10:17:21.193Z,31.25
2018-09-04T10:18:21.400Z,31.46
2018-09-04T10:19:21.606Z,29.90
2018-09-04T10:20:21.812Z,30.34
2018-09-04T10:21:22.075Z,29.61
2018-09-04T10:22:22.216Z,30.49
2018-09-04T10:23:22.446Z,30.60
2018-09-04T10:24:22.633Z,30.54
2018-09-04T10:25:22.838Z,31.25
2018-09-04T10:26:23.071Z,29.89
2018-09-04T10:27:23.250Z,30.04
2018-09-04T10:28:23.456Z,29.76
2018-09-04T10:29:23.664Z,29.30
2018-09-04T10:30:23.867Z,29.27
2018-09-04T10:31:24.073Z,29.55
2018-09-04T10:32:24.285Z,30.15
2018-09-04T10:33:24.489Z,29.67
2018-09-04T10:34:24.698Z,30.69
2018-09-04T10:35:24.903Z,31.01
2018-09-04T10:36:25.176Z,29.67
2018-09-04T10:37:25.320Z,29.67
2018-09-04T10:38:25.532Z,30.24
2018-09-04T10:39:25.734Z,29.74
2018-09-04T10:40:25.991Z,29.37
2018-09-04T10:41:26.151Z,30.24
2018-09-04T10:42:26.370Z,31.34
2018-09-04T10:43:26.567Z,31.92
2018-09-04T10:44:26.823Z,32.52
2018-09-04T10:45:26.973Z,33.14
2018-09-04T10:46:27.176Z,32.33
2018-09-04T10:47:27.387Z,32.45
2018-09-04T10:48:27.585Z,32.60
2018-09-04T10:49:27.786Z,31.32
2018-09-04T10:50:27.991Z,32.07
2018-09-04T10:51:28.200Z,31.75
2018-09-04T10:52:28.402Z,32.32
2018-09-04T10:53:28.603Z,32.32
2018-09-04T10:54:28.810Z,31.92
2018-09-04T10:55:29.020Z,31.46
2018-09-04T10:56:29.219Z,31.14
2018-09-04T10:57:29.425Z,31.23
2018-09-04T10:58:29.630Z,31.70
2018-09-04T10:59:29.831Z,31.99
2018-09-04T11:00:30.035Z,32.45
2018-09-04T11:01:30.249Z,33.14
2018-09-04T11:02:30.441Z,32.21
2018-09-04T11:03:30.652Z,30.64
2018-09-04T11:04:30.857Z,30.73
2018-09-04T11:05:31.063Z,30.46
2018-09-04T11:06:31.274Z,30.83
2018-09-04T11:07:31.487Z,30.84
2018-09-04T11:08:31.688Z,31.17
2018-09-04T11:09:31.982Z,30.99
2018-09-04T11:10:32.113Z,31.73
2018-09-04T11:11:32.312Z,32.21
2018-09-04T11:12:32.523Z,32.35
2018-09-04T11:13:32.725Z,32.48
2018-09-04T11:14:32.932Z,31.80
2018-09-04T11:15:33.133Z,31.43
2018-09-04T11:16:33.332Z,31.07
2018-09-04T11:17:33.539Z,30.49
2018-09-04T11:18:33.748Z,30.34
2018-09-04T11:19:33.942Z,29.64
2018-09-04T11:20:34.154Z,30.84
2018-09-04T11:21:34.353Z,31.72
2018-09-04T11:22:34.567Z,31.78
2018-09-04T11:23:34.785Z,31.73
2018-09-04T11:24:34.984Z,31.95
2018-09-04T11:25:35.183Z,31.62
2018-09-04T11:26:35.395Z,31.44
2018-09-04T11:27:35.602Z,31.62
2018-09-04T11:28:35.799Z,31.44
2018-09-04T11:29:36.016Z,31.10
2018-09-04T11:30:36.265Z,31.78
2018-09-04T11:31:36.423Z,31.17
2018-09-04T11:32:36.634Z,30.72
2018-09-04T11:33:36.836Z,30.98
2018-09-04T11:34:37.041Z,30.72
2018-09-04T11:35:37.242Z,30.24
2018-09-04T11:36:37.445Z,30.35
2018-09-04T11:37:37.644Z,30.57
2018-09-04T11:38:37.847Z,30.61
2018-09-04T11:39:38.048Z,30.32
2018-09-04T11:40:38.330Z,29.85
2018-09-04T11:41:38.473Z,29.21
2018-09-04T11:42:38.719Z,29.18
2018-09-04T11:43:38.885Z,29.36
2018-09-04T11:44:39.088Z,29.39
2018-09-04T11:45:39.291Z,29.45
2018-09-04T11:46:39.492Z,29.52
2018-09-04T11:47:39.698Z,29.87
2018-09-04T11:48:39.961Z,29.86
2018-09-04T11:49:40.103Z,29.19
2018-09-04T11:50:40.305Z,29.26
2018-09-04T11:51:40.513Z,29.23
2018-09-04T11:52:40.712Z,29.34
2018-09-04T11:53:40.915Z,29.34
2018-09-04T11:54:41.113Z,28.66
2018-09-04T11:55:41.320Z,28.09
2018-09-04T11:56:41.527Z,28.15
2018-09-04T11:57:41.723Z,28.33
2018-09-04T11:58:41.921Z,27.79
2018-09-04T11:59:42.201Z,27.51
2018-09-04T12:00:42.325Z,27.41
2018-09-04T12:01:42.524Z,27.28
2018-09-04T12:02:42.728Z,27.66
2018-09-04T12:03:42.930Z,27.99
2018-09-04T12:04:43.128Z,27.99
2018-09-04T12:05:43.361Z,27.74
2018-09-04T12:06:43.624Z,27.90
2018-09-04T12:07:43.726Z,27.44
2018-09-04T12:08:43.923Z,27.18
2018-09-04T12:09:44.125Z,27.12
2018-09-04T12:10:44.319Z,27.10
2018-09-04T12:11:44.521Z,27.34
2018-09-04T12:12:44.750Z,27.17
2018-09-04T12:13:44.917Z,27.12
2018-09-04T12:14:45.117Z,27.62
2018-09-04T12:15:45.317Z,28.00
2018-09-04T12:16:45.524Z,27.70
2018-09-04T12:17:45.731Z,27.57
2018-09-04T12:18:45.933Z,27.90
2018-09-04T12:19:46.129Z,28.36
2018-09-04T12:20:46.384Z,28.70
2018-09-04T12:21:46.526Z,29.14
2018-09-04T12:22:46.733Z,29.37
2018-09-04T12:23:46.932Z,29.33
2018-09-04T12:24:47.138Z,29.48
2018-09-04T12:25:47.325Z,29.42
2018-09-04T12:26:47.527Z,29.15
2018-09-04T12:27:47.725Z,28.88
2018-09-04T12:28:47.918Z,29.30
2018-09-04T12:29:48.117Z,29.41
2018-09-04T12:30:48.319Z,29.37
2018-09-04T12:31:48.521Z,29.58
2018-09-04T12:32:48.719Z,29.63
2018-09-04T12:33:48.919Z,29.68
2018-09-04T12:34:49.114Z,29.83
2018-09-04T12:35:49.315Z,29.70
2018-09-04T12:36:49.517Z,30.01
2018-09-04T12:37:49.711Z,30.26
2018-09-04T12:38:49.911Z,30.47
2018-09-04T12:39:50.125Z,30.26
2018-09-04T12:40:50.317Z,30.27
2018-09-04T12:41:50.515Z,29.80
2018-09-04T12:42:50.715Z,29.78
2018-09-04T12:43:50.912Z,29.98
2018-09-04T12:44:51.123Z,30.15
2018-09-04T12:45:51.305Z,29.92
2018-09-04T12:46:51.503Z,29.19
2018-09-04T12:47:51.704Z,28.80
2018-09-04T12:48:51.901Z,28.95
2018-09-04T12:49:52.104Z,28.49
2018-09-04T12:50:52.299Z,28.11
2018-09-04T12:51:52.523Z,28.22
2018-09-04T12:52:52.704Z,28.48
2018-09-04T12:53:52.907Z,28.96
2018-09-04T12:54:53.107Z,29.14